createdAt,value
2017-07-08T09:41:04.366Z,55
2017-07-08T09:42:13.766Z,60
2017-07-08T09:43:23.060Z,60
2017-07-08T09:44:32.364Z,55
2017-07-08T09:45:41.653Z,50
2017-07-08T09:46:51.031Z,45
2017-07-08T09:48:00.329Z,45
2017-07-08T09:49:09.629Z,55
2017-07-08T09:50:19.221Z,60
2017-07-08T09:51:27.893Z,70
2017-07-08T09:52:36.872Z,65
2017-07-08T09:53:46.471Z,75
2017-07-08T09:54:55.430Z,60
2017-07-08T09:56:04.708Z,60
2017-07-08T09:57:14.066Z,60
2017-07-08T09:58:23.029Z,60
2017-07-08T09:59:32.325Z,65
2017-07-08T10:00:40.992Z,65
2017-07-08T10:01:49.648Z,70
2017-07-08T10:02:58.620Z,65
2017-07-08T10:04:07.298Z,55
2017-07-08T10:05:16.586Z,50
2017-07-08T10:06:25.241Z,55
2017-07-08T10:07:34.520Z,50
2017-07-08T10:08:44.117Z,50
2017-07-08T10:09:53.104Z,45
2017-07-08T10:11:01.751Z,40
2017-07-08T10:12:10.720Z,40
2017-07-08T10:13:20.037Z,35
2017-07-08T10:14:29.325Z,35
2017-07-08T10:15:38.038Z,35
2017-07-08T10:16:47.952Z,35
2017-07-08T10:17:57.549Z,35
2017-07-08T10:19:06.831Z,35
2017-07-08T10:20:15.480Z,30
2017-07-08T10:21:24.450Z,30
2017-07-08T10:22:34.051Z,30
2017-07-08T10:23:43.014Z,30
2017-07-08T10:24:52.294Z,30
2017-07-08T10:26:00.940Z,30
2017-07-08T10:27:10.223Z,30
2017-07-08T10:28:19.509Z,30
2017-07-08T10:29:28.796Z,30
2017-07-08T10:30:37.761Z,30
2017-07-08T10:31:46.730Z,30
2017-07-08T10:32:55.699Z,30
2017-07-08T10:34:04.662Z,30
2017-07-08T10:35:13.310Z,30
2017-07-08T10:36:22.283Z,30
2017-07-08T10:37:31.247Z,30
2017-07-08T10:38:41.171Z,30
2017-07-08T10:39:50.137Z,30
2017-07-08T10:40:59.103Z,30
2017-07-08T10:42:08.372Z,30
2017-07-08T10:43:17.351Z,30
2017-07-08T10:44:27.255Z,30
2017-07-08T10:45:35.917Z,30
2017-07-08T10:46:44.873Z,30
2017-07-08T10:47:53.521Z,30
2017-07-08T10:49:02.507Z,30
2017-07-08T10:50:11.466Z,30
2017-07-08T10:51:20.123Z,30
2017-07-08T10:52:29.396Z,30
2017-07-08T10:53:38.363Z,30
2017-07-08T10:54:47.654Z,30
2017-07-08T10:55:56.954Z,30
2017-07-08T10:57:05.603Z,30
2017-07-08T10:58:14.250Z,30
2017-07-08T10:59:23.221Z,30
2017-07-08T11:00:32.188Z,30
2017-07-08T11:01:41.156Z,30
2017-07-08T11:02:50.754Z,30
2017-07-08T11:04:00.363Z,30
2017-07-08T11:05:09.334Z,25
2017-07-08T11:06:17.973Z,25
2017-07-08T11:07:26.622Z,25
2017-07-08T11:08:35.580Z,25
2017-07-08T11:09:44.240Z,25
2017-07-08T11:10:53.959Z,25
2017-07-08T11:12:02.925Z,25
2017-07-08T11:13:11.893Z,25
2017-07-08T11:14:20.861Z,20
2017-07-08T11:15:30.753Z,20
2017-07-08T11:16:39.422Z,20
2017-07-08T11:17:48.463Z,20
2017-07-08T11:18:57.432Z,20
2017-07-08T11:20:06.709Z,20
2017-07-08T11:21:15.979Z,20
2017-07-08T11:22:24.624Z,20
2017-07-08T11:23:33.280Z,20
2017-07-08T11:24:42.250Z,20
2017-07-08T11:25:51.558Z,20
2017-07-08T11:27:01.220Z,20
2017-07-08T11:28:10.182Z,20
2017-07-08T11:29:19.481Z,20
2017-07-08T11:30:28.450Z,20
2017-07-08T11:31:38.119Z,20
2017-07-08T11:32:47.073Z,20
2017-07-08T11:33:55.717Z,20
2017-07-08T11:35:05.023Z,20
2017-07-08T11:36:14.615Z,20
2017-07-08T11:37:23.896Z,20
2017-07-08T11:38:33.202Z,20
2017-07-08T11:39:42.186Z,20
2017-07-08T11:40:51.158Z,20
2017-07-08T11:41:59.794Z,20
2017-07-08T11:43:08.755Z,20
2017-07-08T11:44:18.033Z,20
2017-07-08T11:45:27.321Z,20
2017-07-08T11:46:36.276Z,20
2017-07-08T11:47:45.558Z,20
2017-07-08T11:48:55.151Z,20
2017-07-08T11:50:04.112Z,20
2017-07-08T11:51:13.703Z,25
2017-07-08T11:52:22.678Z,25
2017-07-08T11:53:31.686Z,25
2017-07-08T11:54:40.345Z,25
2017-07-08T11:55:49.030Z,25
2017-07-08T11:56:57.679Z,25
2017-07-08T11:58:06.329Z,25
2017-07-08T11:59:14.975Z,25
2017-07-08T12:00:23.949Z,25
2017-07-08T12:01:33.231Z,30
2017-07-08T12:02:41.921Z,30
2017-07-08T12:03:51.192Z,30
2017-07-08T12:05:00.169Z,25
2017-07-08T12:06:09.451Z,30
2017-07-08T12:07:19.380Z,30
2017-07-08T12:08:28.658Z,25
2017-07-08T12:09:37.949Z,30
2017-07-08T12:10:46.603Z,30
2017-07-08T12:11:56.508Z,25
2017-07-08T12:13:05.158Z,30
2017-07-08T12:14:14.748Z,30
2017-07-08T12:15:23.709Z,30
2017-07-08T12:16:32.352Z,30
2017-07-08T12:17:41.966Z,25
2017-07-08T12:18:50.957Z,25
2017-07-08T12:20:00.559Z,25
2017-07-08T12:21:10.785Z,25
2017-07-08T12:22:20.362Z,25
2017-07-08T12:23:29.632Z,30
2017-07-08T12:24:38.916Z,30
2017-07-08T12:25:47.877Z,30
2017-07-08T12:26:56.851Z,30
2017-07-08T12:28:06.129Z,30
2017-07-08T12:29:15.418Z,30
2017-07-08T12:30:24.710Z,30
2017-07-08T12:31:33.978Z,25
2017-07-08T12:32:42.948Z,30
2017-07-08T12:33:51.620Z,30
2017-07-08T12:35:00.608Z,35
2017-07-08T12:36:09.896Z,40
2017-07-08T12:37:18.856Z,40
2017-07-08T12:38:28.137Z,40
2017-07-08T12:39:37.425Z,40
2017-07-08T12:40:46.082Z,40
2017-07-08T12:41:55.041Z,40
2017-07-08T12:43:04.002Z,40
2017-07-08T12:44:12.991Z,40
2017-07-08T12:45:22.595Z,45
2017-07-08T12:46:31.559Z,45
2017-07-08T12:47:40.538Z,45
2017-07-08T12:48:49.814Z,40
2017-07-08T12:49:59.105Z,40
2017-07-08T12:51:08.071Z,35
2017-07-08T12:52:17.508Z,35
2017-07-08T12:53:26.797Z,35
2017-07-08T12:54:35.758Z,35
2017-07-08T12:55:44.731Z,35
2017-07-08T12:56:53.738Z,35
2017-07-08T12:58:02.397Z,30
2017-07-08T12:59:11.365Z,30
2017-07-08T13:00:20.328Z,30
2017-07-08T13:01:29.319Z,30
2017-07-08T13:02:38.287Z,30
2017-07-08T13:03:47.878Z,30
2017-07-08T13:04:56.529Z,30
2017-07-08T13:06:06.444Z,30
2017-07-08T13:07:16.030Z,30
2017-07-08T13:08:25.319Z,30
2017-07-08T13:09:34.285Z,30
2017-07-08T13:10:43.251Z,30
2017-07-08T13:11:52.212Z,30
2017-07-08T13:13:01.500Z,30
2017-07-08T13:14:10.776Z,30
2017-07-08T13:15:19.739Z,30
2017-07-08T13:16:29.316Z,30
2017-07-08T13:17:38.285Z,35
2017-07-08T13:18:47.252Z,35
2017-07-08T13:19:56.537Z,30
2017-07-08T13:21:05.192Z,35
2017-07-08T13:22:14.162Z,35
2017-07-08T13:23:23.453Z,35
2017-07-08T13:24:32.733Z,40
2017-07-08T13:25:41.688Z,40
2017-07-08T13:26:50.978Z,35
2017-07-08T13:27:59.635Z,35
2017-07-08T13:29:08.605Z,35
2017-07-08T13:30:17.253Z,35
2017-07-08T13:31:25.908Z,30
2017-07-08T13:32:34.871Z,35
2017-07-08T13:33:43.525Z,35
2017-07-08T13:34:52.482Z,35
2017-07-08T13:36:01.757Z,35
2017-07-08T13:37:11.108Z,30
2017-07-08T13:38:20.166Z,30
2017-07-08T13:39:29.454Z,30
2017-07-08T13:40:39.050Z,30
2017-07-08T13:41:48.011Z,25
2017-07-08T13:42:56.986Z,25
2017-07-08T13:44:05.950Z,30
2017-07-08T13:45:15.248Z,30
2017-07-08T13:46:24.210Z,30
2017-07-08T13:47:33.556Z,30
2017-07-08T13:48:42.477Z,25
2017-07-08T13:49:52.097Z,25
2017-07-08T13:51:00.754Z,25
2017-07-08T13:52:10.034Z,20
2017-07-08T13:53:19.311Z,25
2017-07-08T13:54:27.964Z,25
2017-07-08T13:55:36.930Z,25
2017-07-08T13:56:46.524Z,20
2017-07-08T13:57:55.507Z,20
2017-07-08T13:59:04.800Z,20
2017-07-08T14:00:13.463Z,20
2017-07-08T14:01:22.120Z,15
2017-07-08T14:02:31.080Z,15
2017-07-08T14:03:40.057Z,15
2017-07-08T14:04:49.027Z,15
2017-07-08T14:05:57.998Z,15
2017-07-08T14:07:06.950Z,15
2017-07-08T14:08:15.971Z,15
2017-07-08T14:09:25.265Z,15
2017-07-08T14:10:34.241Z,15
2017-07-08T14:11:43.220Z,15
2017-07-08T14:12:52.184Z,15
2017-07-08T14:14:01.464Z,15
2017-07-08T14:15:10.733Z,15
2017-07-08T14:16:19.770Z,15
2017-07-08T14:17:28.476Z,20
2017-07-08T14:18:37.125Z,20
2017-07-08T14:19:46.084Z,20
2017-07-08T14:20:55.052Z,20
2017-07-08T14:22:04.333Z,20
2017-07-08T14:23:12.984Z,15
2017-07-08T14:24:22.590Z,15
2017-07-08T14:25:32.492Z,15
2017-07-08T14:26:41.452Z,20
2017-07-08T14:27:50.409Z,25
2017-07-08T14:28:59.374Z,25
2017-07-08T14:30:08.336Z,25
2017-07-08T14:31:17.633Z,25
2017-07-08T14:32:26.600Z,25
2017-07-08T14:33:35.588Z,20
2017-07-08T14:34:44.283Z,20
2017-07-08T14:35:53.586Z,20
2017-07-08T14:37:03.185Z,20
2017-07-08T14:38:11.826Z,20
2017-07-08T14:39:20.783Z,20
2017-07-08T14:40:29.514Z,20
2017-07-08T14:41:38.451Z,20
2017-07-08T14:42:47.205Z,20
2017-07-08T14:43:55.857Z,15
2017-07-08T14:45:04.822Z,15
2017-07-08T14:46:14.101Z,15
2017-07-08T14:47:23.129Z,15
2017-07-08T14:48:32.080Z,15
2017-07-08T14:49:40.719Z,15
2017-07-08T14:50:50.002Z,15
2017-07-08T14:51:59.284Z,15
2017-07-08T14:53:08.240Z,15
2017-07-08T14:54:17.217Z,15
2017-07-08T14:55:26.185Z,15
2017-07-08T14:56:35.465Z,15
2017-07-08T14:57:44.759Z,20
2017-07-08T14:58:54.801Z,25
2017-07-08T15:00:05.367Z,20
2017-07-08T15:01:16.719Z,20
2017-07-08T15:02:26.009Z,15
2017-07-08T15:03:35.609Z,15
2017-07-08T15:04:44.879Z,15
2017-07-08T15:05:53.536Z,15
2017-07-08T15:07:02.502Z,15
2017-07-08T15:08:11.783Z,15
2017-07-08T15:09:21.065Z,20
2017-07-08T15:10:30.351Z,20
2017-07-08T15:11:39.311Z,25
2017-07-08T15:12:48.284Z,30
2017-07-08T15:13:57.566Z,30
2017-07-08T15:15:06.220Z,25
2017-07-08T15:16:15.200Z,20
2017-07-08T15:17:24.199Z,20
2017-07-08T15:18:33.159Z,15
2017-07-08T15:19:42.449Z,15
2017-07-08T15:20:51.245Z,15
2017-07-08T15:22:00.556Z,15
2017-07-08T15:23:10.137Z,15
2017-07-08T15:24:19.427Z,15
2017-07-08T15:25:28.075Z,20
2017-07-08T15:26:37.669Z,20
2017-07-08T15:27:46.644Z,20
2017-07-08T15:28:55.600Z,15
2017-07-08T15:30:04.622Z,15
2017-07-08T15:31:13.578Z,10
2017-07-08T15:32:22.853Z,10
2017-07-08T15:33:32.156Z,10
2017-07-08T15:34:40.830Z,10
2017-07-08T15:35:49.480Z,10
2017-07-08T15:36:58.158Z,10
2017-07-08T15:38:07.261Z,10
2017-07-08T15:39:15.935Z,15
2017-07-08T15:40:24.579Z,15
2017-07-08T15:41:33.549Z,15
2017-07-08T15:42:42.521Z,15
2017-07-08T15:43:51.546Z,15
2017-07-08T15:45:01.136Z,15
2017-07-08T15:46:10.413Z,15
2017-07-08T15:47:19.392Z,15
2017-07-08T15:48:28.072Z,15
2017-07-08T15:49:37.352Z,20
2017-07-08T15:50:46.323Z,20
2017-07-08T15:51:55.287Z,20
2017-07-08T15:53:04.568Z,20
2017-07-08T15:54:13.270Z,20
2017-07-08T15:55:22.290Z,20
2017-07-08T15:56:31.529Z,15
2017-07-08T15:57:41.111Z,15
2017-07-08T15:58:50.401Z,15
2017-07-08T16:00:00.429Z,15
2017-07-08T16:01:09.155Z,15
2017-07-08T16:02:17.797Z,15
2017-07-08T16:03:26.444Z,15
2017-07-08T16:04:35.717Z,15
2017-07-08T16:05:45.375Z,15
2017-07-08T16:06:55.118Z,15
2017-07-08T16:08:04.744Z,10
2017-07-08T16:09:13.465Z,15
2017-07-08T16:10:23.064Z,15
2017-07-08T16:11:32.663Z,15
2017-07-08T16:12:42.254Z,15
2017-07-08T16:13:50.903Z,15
2017-07-08T16:14:59.559Z,15
2017-07-08T16:16:08.527Z,10
2017-07-08T16:17:17.810Z,10
2017-07-08T16:18:26.785Z,15
2017-07-08T16:19:35.432Z,15
2017-07-08T16:20:44.068Z,15
2017-07-08T16:21:53.349Z,15
2017-07-08T16:23:03.275Z,15
2017-07-08T16:24:12.707Z,15
2017-07-08T16:25:21.987Z,15
2017-07-08T16:26:31.270Z,15
2017-07-08T16:27:40.903Z,10
2017-07-08T16:28:49.554Z,10
2017-07-08T16:29:58.209Z,10
2017-07-08T16:31:07.168Z,10
2017-07-08T16:32:16.466Z,10
2017-07-08T16:33:26.054Z,10
2017-07-08T16:34:35.323Z,10
2017-07-08T16:35:44.301Z,10
2017-07-08T16:36:53.257Z,15
2017-07-08T16:38:02.535Z,15
2017-07-08T16:39:11.185Z,15
2017-07-08T16:40:20.467Z,15
2017-07-08T16:41:29.416Z,15
2017-07-08T16:42:38.763Z,15
2017-07-08T16:43:47.666Z,10
2017-07-08T16:44:56.338Z,10
2017-07-08T16:46:05.620Z,10
2017-07-08T16:47:14.917Z,10
2017-07-08T16:48:24.509Z,10
2017-07-08T16:49:33.478Z,10
2017-07-08T16:50:43.067Z,10
2017-07-08T16:51:52.034Z,10
2017-07-08T16:53:01.307Z,10
2017-07-08T16:54:10.273Z,5
2017-07-08T16:55:18.917Z,5
2017-07-08T16:56:28.557Z,5
2017-07-08T16:57:37.514Z,5
2017-07-08T16:58:46.484Z,5
2017-07-08T16:59:55.449Z,5
2017-07-08T17:01:04.411Z,5
2017-07-08T17:02:13.695Z,5
2017-07-08T17:03:22.980Z,5
2017-07-08T17:04:32.244Z,5
2017-07-08T17:05:41.216Z,5
2017-07-08T17:06:50.190Z,5
2017-07-08T17:07:58.831Z,5
2017-07-08T17:09:08.103Z,5
2017-07-08T17:10:16.751Z,5
2017-07-08T17:11:25.718Z,5
2017-07-08T17:12:34.355Z,5
2017-07-08T17:13:43.327Z,5
2017-07-08T17:14:52.299Z,5
2017-07-08T17:16:01.575Z,5
2017-07-08T17:17:10.539Z,5
2017-07-08T17:18:19.876Z,5
2017-07-08T17:19:29.162Z,5
2017-07-08T17:20:38.149Z,5
2017-07-08T17:21:47.126Z,5
2017-07-08T17:22:55.796Z,5
2017-07-08T17:24:04.756Z,5
2017-07-08T17:25:13.714Z,5
2017-07-08T17:26:23.003Z,5
2017-07-08T17:27:32.287Z,0
2017-07-08T17:28:41.235Z,0
2017-07-08T17:29:50.207Z,0
2017-07-08T17:30:59.477Z,0
2017-07-08T17:32:09.088Z,0
2017-07-08T17:33:18.082Z,0
2017-07-08T17:34:27.394Z,0
2017-07-08T17:35:36.676Z,0
2017-07-08T17:36:45.655Z,0
2017-07-08T17:37:54.620Z,0
2017-07-08T17:39:03.911Z,5
2017-07-08T17:40:12.877Z,5
2017-07-08T17:41:22.146Z,5
2017-07-08T17:42:31.113Z,5
2017-07-08T17:43:40.084Z,0
2017-07-08T17:44:49.065Z,0
2017-07-08T17:45:57.714Z,0
2017-07-08T17:47:06.372Z,0
2017-07-08T17:48:15.331Z,0
2017-07-08T17:49:24.928Z,0
2017-07-08T17:50:33.952Z,0
2017-07-08T17:51:43.252Z,0
2017-07-08T17:52:51.913Z,0
2017-07-08T17:54:01.197Z,0
2017-07-08T17:55:10.166Z,0
2017-07-08T17:56:18.835Z,0
2017-07-08T17:57:27.794Z,0
2017-07-08T17:58:36.755Z,0
2017-07-08T17:59:46.343Z,0
2017-07-08T18:00:55.317Z,0
2017-07-08T18:02:04.278Z,0
2017-07-08T18:03:13.240Z,0
2017-07-08T18:04:22.204Z,0
2017-07-08T18:05:31.159Z,0
2017-07-08T18:06:40.178Z,5
2017-07-08T18:07:49.631Z,5
2017-07-08T18:08:58.603Z,5
2017-07-08T18:10:08.250Z,5
2017-07-08T18:11:16.900Z,5
2017-07-08T18:12:26.189Z,5
2017-07-08T18:13:34.845Z,5
2017-07-08T18:14:43.871Z,5
2017-07-08T18:15:53.144Z,5
2017-07-08T18:17:02.118Z,5
2017-07-08T18:18:11.090Z,5
2017-07-08T18:19:19.746Z,5
2017-07-08T18:20:28.788Z,5
2017-07-08T18:21:39.002Z,5
2017-07-08T18:22:47.975Z,5
2017-07-08T18:23:57.274Z,5
2017-07-08T18:25:06.243Z,5
2017-07-08T18:26:15.226Z,5
2017-07-08T18:27:24.821Z,5
2017-07-08T18:28:33.476Z,5
2017-07-08T18:29:43.063Z,5
2017-07-08T18:30:52.036Z,5
2017-07-08T18:32:01.338Z,5
2017-07-08T18:33:10.306Z,5
2017-07-08T18:34:19.308Z,5
2017-07-08T18:35:28.256Z,5
2017-07-08T18:36:36.914Z,5
2017-07-08T18:37:46.197Z,5
2017-07-08T18:38:55.497Z,5
2017-07-08T18:40:04.800Z,5
2017-07-08T18:41:14.099Z,5
2017-07-08T18:42:23.388Z,5
2017-07-08T18:43:32.979Z,5
2017-07-08T18:44:41.623Z,5
2017-07-08T18:45:50.575Z,5
2017-07-08T18:46:59.553Z,5
2017-07-08T18:48:08.568Z,5
2017-07-08T18:49:17.254Z,0
2017-07-08T18:50:26.849Z,0
2017-07-08T18:51:35.814Z,0
2017-07-08T18:52:45.410Z,0
2017-07-08T18:53:54.386Z,0
2017-07-08T18:55:03.371Z,0
2017-07-08T18:56:12.958Z,0
2017-07-08T18:57:22.574Z,0
2017-07-08T18:58:32.161Z,0
2017-07-08T18:59:41.140Z,0
2017-07-08T19:00:50.421Z,0
2017-07-08T19:02:00.018Z,0
2017-07-08T19:03:09.611Z,0
2017-07-08T19:04:18.904Z,0
2017-07-08T19:05:27.560Z,0
2017-07-08T19:06:36.846Z,0
2017-07-08T19:07:46.139Z,0
2017-07-08T19:08:56.043Z,0
2017-07-08T19:10:05.005Z,0
2017-07-08T19:11:13.963Z,0
2017-07-08T19:12:23.236Z,0
2017-07-08T19:13:32.521Z,0
2017-07-08T19:14:42.432Z,0
2017-07-08T19:15:51.099Z,0
2017-07-08T19:16:59.751Z,0
2017-07-08T19:18:08.708Z,0
2017-07-08T19:19:18.046Z,0
2017-07-08T19:20:27.256Z,0
2017-07-08T19:21:36.529Z,0
2017-07-08T19:22:45.494Z,0
2017-07-08T19:23:54.448Z,0
2017-07-08T19:25:04.050Z,0
2017-07-08T19:26:13.012Z,0
2017-07-08T19:27:21.992Z,0
2017-07-08T19:28:30.963Z,0
2017-07-08T19:29:40.257Z,0
2017-07-08T19:30:49.531Z,0
2017-07-08T19:31:58.817Z,0
2017-07-08T19:33:07.774Z,0
2017-07-08T19:34:16.431Z,0
2017-07-08T19:35:26.022Z,0
2017-07-08T19:36:35.045Z,0
2017-07-08T19:37:44.641Z,0
2017-07-08T19:38:53.601Z,0
2017-07-08T19:40:02.905Z,0
2017-07-08T19:41:11.581Z,0
2017-07-08T19:42:20.227Z,0
2017-07-08T19:43:29.508Z,0
2017-07-08T19:44:38.470Z,0
2017-07-08T19:45:47.444Z,0
2017-07-08T19:46:56.410Z,0
2017-07-08T19:48:05.692Z,0
2017-07-08T19:49:14.652Z,0
2017-07-08T19:50:24.258Z,0
2017-07-08T19:51:33.849Z,0
2017-07-08T19:52:43.153Z,0
2017-07-08T19:53:52.142Z,0
2017-07-08T19:55:01.122Z,0
2017-07-08T19:56:10.706Z,0
2017-07-08T19:57:19.390Z,0
2017-07-08T19:58:29.011Z,0
2017-07-08T19:59:38.616Z,0
2017-07-08T20:00:47.272Z,0
2017-07-08T20:01:56.563Z,0
2017-07-08T20:03:05.532Z,0
2017-07-08T20:04:14.503Z,0
2017-07-08T20:05:23.148Z,0
2017-07-08T20:06:32.727Z,0
2017-07-08T20:07:42.366Z,0
2017-07-08T20:08:51.360Z,0
2017-07-08T20:10:00.938Z,0
2017-07-08T20:11:09.904Z,0
2017-07-08T20:12:18.894Z,0
2017-07-08T20:13:28.187Z,0
2017-07-08T20:14:37.478Z,0
2017-07-08T20:15:46.445Z,0
2017-07-08T20:16:55.098Z,0
2017-07-08T20:18:03.777Z,0
2017-07-08T20:19:12.754Z,0
2017-07-08T20:20:22.035Z,0
2017-07-08T20:21:30.994Z,0
2017-07-08T20:22:40.260Z,0
2017-07-08T20:23:49.538Z,0
2017-07-08T20:24:58.808Z,0
2017-07-08T20:26:08.083Z,0
2017-07-08T20:27:17.049Z,0
2017-07-08T20:28:26.645Z,0
2017-07-08T20:29:36.236Z,0
2017-07-08T20:30:44.885Z,0
2017-07-08T20:31:54.155Z,0
2017-07-08T20:33:03.751Z,0
2017-07-08T20:34:12.408Z,0
2017-07-08T20:35:21.752Z,0
2017-07-08T20:36:30.717Z,0
2017-07-08T20:37:39.695Z,0
2017-07-08T20:38:48.360Z,0
2017-07-08T20:39:57.333Z,0
2017-07-08T20:41:06.641Z,0
2017-07-08T20:42:15.931Z,0
2017-07-08T20:43:24.895Z,0
2017-07-08T20:44:34.502Z,0
2017-07-08T20:45:43.464Z,0
2017-07-08T20:46:52.443Z,0
2017-07-08T20:48:01.089Z,0
2017-07-08T20:49:10.051Z,0
2017-07-08T20:50:19.649Z,0
2017-07-08T20:51:28.925Z,0
2017-07-08T20:52:37.883Z,0
2017-07-08T20:53:46.631Z,0
2017-07-08T20:54:55.954Z,0
2017-07-08T20:56:05.228Z,0
2017-07-08T20:57:14.185Z,0
2017-07-08T20:58:23.464Z,0
2017-07-08T20:59:32.489Z,0
2017-07-08T21:00:41.091Z,0
2017-07-08T21:01:50.054Z,0
2017-07-08T21:02:59.646Z,0
2017-07-08T21:04:08.310Z,0
2017-07-08T21:05:17.588Z,0
2017-07-08T21:06:26.582Z,0
2017-07-08T21:07:35.550Z,0
2017-07-08T21:08:44.192Z,0
2017-07-08T21:09:53.467Z,0
2017-07-08T21:11:03.155Z,0
2017-07-08T21:12:12.439Z,0
2017-07-08T21:13:21.404Z,0
2017-07-08T21:14:30.759Z,0
2017-07-08T21:15:39.492Z,0
2017-07-08T21:16:48.859Z,0
2017-07-08T21:17:58.824Z,0
2017-07-08T21:19:07.608Z,0
2017-07-08T21:20:16.902Z,0
2017-07-08T21:21:26.808Z,0
2017-07-08T21:22:35.483Z,0
2017-07-08T21:23:44.216Z,0
2017-07-08T21:24:53.214Z,0
2017-07-08T21:26:02.175Z,0
2017-07-08T21:27:12.098Z,0
2017-07-08T21:28:21.397Z,0
2017-07-08T21:29:30.036Z,0
2017-07-08T21:30:38.998Z,0
2017-07-08T21:31:47.970Z,0
2017-07-08T21:32:57.316Z,0
2017-07-08T21:34:06.279Z,0
2017-07-08T21:35:15.565Z,0
2017-07-08T21:36:24.547Z,0
2017-07-08T21:37:33.825Z,0
2017-07-08T21:38:43.102Z,0
2017-07-08T21:39:52.702Z,0
2017-07-08T21:41:01.989Z,0
2017-07-08T21:42:11.267Z,0
2017-07-08T21:43:19.909Z,0
2017-07-08T21:44:29.497Z,0
2017-07-08T21:45:38.142Z,0
2017-07-08T21:46:46.836Z,0
2017-07-08T21:47:55.489Z,0
2017-07-08T21:49:05.127Z,0
2017-07-08T21:50:14.407Z,0
2017-07-08T21:51:23.369Z,0
2017-07-08T21:52:32.683Z,0
2017-07-08T21:53:41.964Z,0
2017-07-08T21:54:50.932Z,0
2017-07-08T21:55:59.889Z,0
2017-07-08T21:57:08.860Z,0
2017-07-08T21:58:17.831Z,0
2017-07-08T21:59:27.124Z,0
2017-07-08T22:00:35.766Z,0
2017-07-08T22:01:44.412Z,0
2017-07-08T22:02:53.696Z,0
2017-07-08T22:04:02.991Z,0
2017-07-08T22:05:11.950Z,0
2017-07-08T22:06:21.530Z,0
2017-07-08T22:07:30.827Z,0
2017-07-08T22:08:39.535Z,0
2017-07-08T22:09:48.189Z,0
2017-07-08T22:10:57.471Z,0
2017-07-08T22:12:06.130Z,0
2017-07-08T22:13:15.118Z,0
2017-07-08T22:14:24.095Z,0
2017-07-08T22:15:33.428Z,0
2017-07-08T22:16:42.018Z,0
2017-07-08T22:17:51.298Z,0
2017-07-08T22:19:00.267Z,0
2017-07-08T22:20:09.244Z,0
2017-07-08T22:21:18.510Z,0
2017-07-08T22:22:28.090Z,0
2017-07-08T22:23:37.677Z,0
2017-07-08T22:24:46.634Z,0
2017-07-08T22:25:56.217Z,0
2017-07-08T22:27:04.859Z,0
2017-07-08T22:28:13.833Z,0
2017-07-08T22:29:23.134Z,0
2017-07-08T22:30:32.412Z,0
2017-07-08T22:31:42.001Z,0
2017-07-08T22:32:51.300Z,0
2017-07-08T22:34:00.005Z,0
2017-07-08T22:35:09.599Z,0
2017-07-08T22:36:18.245Z,0
2017-07-08T22:37:26.900Z,0
2017-07-08T22:38:35.877Z,0
2017-07-08T22:39:45.144Z,0
2017-07-08T22:40:54.412Z,0
2017-07-08T22:42:03.998Z,0
2017-07-08T22:43:12.955Z,0
2017-07-08T22:44:22.229Z,0
2017-07-08T22:45:31.492Z,0
2017-07-08T22:46:40.772Z,0
2017-07-08T22:50:22.103Z,0
2017-07-08T22:51:31.068Z,0
2017-07-08T22:52:40.030Z,0
2017-07-08T22:53:49.322Z,0
2017-07-08T22:54:58.288Z,0
2017-07-08T22:56:07.250Z,0
2017-07-08T22:57:16.224Z,0
2017-07-08T22:58:25.488Z,0
2017-07-08T22:59:34.452Z,0
2017-07-08T23:00:43.413Z,0
2017-07-08T23:01:52.373Z,0
2017-07-08T23:03:01.972Z,0
2017-07-08T23:04:11.259Z,0
2017-07-08T23:05:20.876Z,0
2017-07-08T23:06:30.165Z,0
2017-07-08T23:07:39.263Z,0
2017-07-08T23:08:48.544Z,0
2017-07-08T23:09:57.503Z,0
2017-07-08T23:11:06.146Z,0
2017-07-08T23:12:15.109Z,0
2017-07-08T23:13:23.759Z,0
2017-07-08T23:14:33.025Z,0
2017-07-08T23:15:41.982Z,0
2017-07-08T23:16:50.953Z,0
2017-07-08T23:18:00.542Z,0
2017-07-08T23:19:10.120Z,0
2017-07-08T23:20:18.772Z,0
2017-07-08T23:21:28.046Z,0
2017-07-08T23:22:37.012Z,0
2017-07-08T23:23:45.981Z,0
2017-07-08T23:24:54.942Z,0
2017-07-08T23:26:04.844Z,0
2017-07-08T23:27:13.801Z,0
2017-07-08T23:28:22.752Z,0
2017-07-08T23:29:31.730Z,0
2017-07-08T23:30:40.992Z,0
2017-07-08T23:31:49.956Z,0
2017-07-08T23:32:58.926Z,0
2017-07-08T23:34:08.537Z,0
2017-07-08T23:35:17.490Z,0
2017-07-08T23:36:27.073Z,0
2017-07-08T23:37:36.961Z,0
2017-07-08T23:38:46.248Z,0
2017-07-08T23:39:55.516Z,0
2017-07-08T23:41:04.168Z,0
2017-07-08T23:42:13.445Z,0
2017-07-08T23:43:22.733Z,0
2017-07-08T23:44:31.688Z,0
2017-07-08T23:45:40.980Z,0
2017-07-08T23:46:49.952Z,0
2017-07-08T23:47:58.928Z,0
2017-07-08T23:49:08.234Z,0
2017-07-08T23:50:17.514Z,0
2017-07-08T23:51:26.185Z,0
2017-07-08T23:52:34.851Z,0
2017-07-08T23:53:43.500Z,0
2017-07-08T23:54:52.465Z,0
2017-07-08T23:56:01.443Z,0
2017-07-08T23:57:10.101Z,0
2017-07-08T23:58:18.758Z,0
2017-07-08T23:59:27.740Z,0
